Storrie, CA (95980)

4:15 AM PST on February 01, 2015 (GMT -0800)
APRSWXNET Magalia CA US | Change Station
CLOSE
Current Station
Personal Weather Station
Location: Magalia, CA
Elevation: 2578 ft
Nearby Weather Stations

Elev 2578 ft 39.84 °N, 121.61 °W | Updated 35 minutes ago

Clear
Clear
50 °F
Feels Like 50 °F
N
2
Wind Variable Wind from NE
Gusts 2.0 mph

Today
High -- | Low -- °F
--% Chance of Precip.
Yesterday
High -- | Low -- °F
Precip. -- in
7:13 AM 5:24 PM
Waxing Gibbous, 94% visible
Pressure 30.11 in
Visibility 10.0 miles
Clouds Clear
Dew Point 19 °F
Humidity 29%
Rainfall 0.00 in
Snow Depth Not available.
UV 0 out of 12
Pollen 6.80 out of 12
Air Quality Not available.
Flu Activity Not available.
METAR KGOO 011140Z AUTO 00000KT 10SM CLR 08/M03 A3011 RMK AO1

More Conditions Fewer Conditions

Pressure 30.11 in
Visibility 10.0 miles
Clouds Clear
Dew Point 19 °F
Humidity 29%
Rainfall 0.00 in
Snow Depth Not available.
UV 0 out of 12
Pollen 6.80 out of 12
Air Quality Not available.
Flu Activity Not available.
METAR KGOO 011140Z AUTO 00000KT 10SM CLR 08/M03 A3011 RMK AO1

More Conditions Fewer Conditions

10-Day Weather Forecast

Almanac

Astronomy

Feb. 01, 2015 Rise Set
Actual Time
Civil Twilight
Nautical Twilight
Astronomical Twilight
Moon
Length of Visible Light
Length of Day
Tomorrow will be .
, % of the Moon is Illuminated

Today's Extremes

State Highs State Lows

Community

WunderPhotos

Upload Photos

1,792,349 photos uploaded!

WunderBlogs® & News

Nearby

Air Quality

  Air Quality AQ Index Pollutant
Not available.

Snow Depth

Station Depth Elevation

Earthquake Activity

City Distance Mag. Time & Date
Minimum magnitude displayed is 2.5.

Coastal Water Temperatures

Place Temperature

Nearby Weather Stations